Columbia — WDD6400 — position and weather

sailwx.info

Track history (hours):
 
Tides and Currents Weather Stations Pressure Air Temp Water Temp Dewpoint Dewpoint Depression Visibility Wind Speed Wind Dir Waves Ship Positions

Columbia

Owner: OSG Ship Management Inc., Tampa, FL. More information available from US FCC via Universal Licensing System and Coast Guard Vessel Documentation Center.

Last reported at 2017-Mar-27 15:33 UTC. Time now 2017-Mar-27 16:31 UTC.
Position N 40°38' W 074°04'.

Length 194 m; draft 5.9 m.

Type: Towing. MMSI: 367172440.

Date/timePositionNaut miles runAvg speedWind from/ knotsBaromVisibWave heightAir tempDewpointWater temp
2017-Mar-27 15:33N 40°38' W 074°04'0 0.0
2017-Mar-27 14:33N 40°38' W 074°04'1 1.1
2017-Mar-27 13:34N 40°39' W 074°05'0 0.4
2017-Mar-27 12:33N 40°39' W 074°05'0 0.0
2017-Mar-27 11:33N 40°39' W 074°05'0 0.0
2017-Mar-27 10:33N 40°39' W 074°05'0 0.0
2017-Mar-27 09:33N 40°39' W 074°05'0 0.0
2017-Mar-27 08:33N 40°39' W 074°05'0 0.0
2017-Mar-27 07:33N 40°39' W 074°05'0 0.0
2017-Mar-27 06:33N 40°39' W 074°05'0 0.0
2017-Mar-27 05:33N 40°39' W 074°05'0 0.0
2017-Mar-27 04:33N 40°39' W 074°05'0 0.0
2017-Mar-27 03:33N 40°39' W 074°05'0 0.0
2017-Mar-27 02:33N 40°39' W 074°05'0 0.0
2017-Mar-27 01:33N 40°39' W 074°05'0 0.0
2017-Mar-27 00:33N 40°39' W 074°05'0 0.0
2017-Mar-26 23:33N 40°39' W 074°05'0 0.0
2017-Mar-26 22:33N 40°39' W 074°05'0 0.0
2017-Mar-26 21:33N 40°39' W 074°05'0 0.0
2017-Mar-26 20:33N 40°39' W 074°05'0 0.0
2017-Mar-26 19:33N 40°39' W 074°05'0 0.0
2017-Mar-26 18:33N 40°39' W 074°05'0 0.0
2017-Mar-26 17:33N 40°39' W 074°05'0 0.0
2017-Mar-26 16:33N 40°39' W 074°05'0 0.0
2017-Mar-26 15:33N 40°39' W 074°05'0 0.0
2017-Mar-26 14:33N 40°39' W 074°05'0 0.0
2017-Mar-26 13:33N 40°39' W 074°05'0 0.0
2017-Mar-26 12:33N 40°39' W 074°05'0 0.0
2017-Mar-26 11:33N 40°39' W 074°05'0 0.0
2017-Mar-26 10:33N 40°39' W 074°05'0 0.0
2017-Mar-26 09:33N 40°39' W 074°05'0 0.0
2017-Mar-26 08:33N 40°39' W 074°05'0 0.0
2017-Mar-26 07:33N 40°39' W 074°05'0 0.0
2017-Mar-26 06:33N 40°39' W 074°05'0 0.0
2017-Mar-26 05:33N 40°39' W 074°05'0 0.0
2017-Mar-26 04:33N 40°39' W 074°05'0 0.0
2017-Mar-26 03:33N 40°39' W 074°05'0 0.0
2017-Mar-26 02:33N 40°39' W 074°05'0 0.0
2017-Mar-26 01:33N 40°39' W 074°05'0 0.0
2017-Mar-26 00:33N 40°39' W 074°05'0 0.0
2017-Mar-25 23:33N 40°39' W 074°05'0 0.0
2017-Mar-25 22:33N 40°39' W 074°05'0 0.0
2017-Mar-25 21:33N 40°39' W 074°05'0 0.0
2017-Mar-25 20:33N 40°39' W 074°05'0 0.0
2017-Mar-25 19:33N 40°39' W 074°05'0 0.0
2017-Mar-25 18:33N 40°39' W 074°05'0 0.0
2017-Mar-25 17:33N 40°39' W 074°05'0 0.3
2017-Mar-25 16:33N 40°39' W 074°05'2 2.2
2017-Mar-25 15:32N 40°37' W 074°03'6 6.2
2017-Mar-25 14:33N 40°32' W 074°01'196 7.7
2017-Mar-24 13:04N 37°22' W 075°05'4 8.8
2017-Mar-24 12:33N 37°18' W 075°07'  
2017-Mar-21 08:11N 27°04' W 079°59'711.0
2017-Mar-21 07:33N 26°57' W 079°59'3510.3
2017-Mar-21 04:11N 26°22' W 079°58'6 9.7
2017-Mar-21 03:33N 26°16' W 079°59'10 9.8
2017-Mar-21 02:33N 26°06' W 079°59'10 9.9
2017-Mar-21 01:33N 25°57' W 079°60'1010.3
2017-Mar-21 00:33N 25°46' W 080°00'1110.5
2017-Mar-20 23:33N 25°36' W 080°01'  
Track history (hours):
 
Tides and Currents Weather Stations Pressure Air Temp Water Temp Dewpoint Dewpoint Depression Visibility Wind Speed Wind Dir Waves Ship Positions

Columbia

Owner: OSG Ship Management Inc., Tampa, FL. More information available from US FCC via Universal Licensing System and Coast Guard Vessel Documentation Center.

Last reported at 2017-Mar-27 15:33 UTC. Time now 2017-Mar-27 16:31 UTC.
Position N 40°38' W 074°04'.

Length 194 m; draft 5.9 m.

Type: Towing. MMSI: 367172440.

Date/timePositionNaut miles runAvg speedWind from/ knotsBaromVisibWave heightAir tempDewpointWater temp
2017-Mar-27 15:33N 40°38' W 074°04'0 0.0
2017-Mar-27 14:33N 40°38' W 074°04'1 1.1
2017-Mar-27 13:34N 40°39' W 074°05'0 0.4
2017-Mar-27 12:33N 40°39' W 074°05'0 0.0
2017-Mar-27 11:33N 40°39' W 074°05'0 0.0
2017-Mar-27 10:33N 40°39' W 074°05'0 0.0
2017-Mar-27 09:33N 40°39' W 074°05'0 0.0
2017-Mar-27 08:33N 40°39' W 074°05'0 0.0
2017-Mar-27 07:33N 40°39' W 074°05'0 0.0
2017-Mar-27 06:33N 40°39' W 074°05'0 0.0
2017-Mar-27 05:33N 40°39' W 074°05'0 0.0
2017-Mar-27 04:33N 40°39' W 074°05'0 0.0
2017-Mar-27 03:33N 40°39' W 074°05'0 0.0
2017-Mar-27 02:33N 40°39' W 074°05'0 0.0
2017-Mar-27 01:33N 40°39' W 074°05'0 0.0
2017-Mar-27 00:33N 40°39' W 074°05'0 0.0
2017-Mar-26 23:33N 40°39' W 074°05'0 0.0
2017-Mar-26 22:33N 40°39' W 074°05'0 0.0
2017-Mar-26 21:33N 40°39' W 074°05'0 0.0
2017-Mar-26 20:33N 40°39' W 074°05'0 0.0
2017-Mar-26 19:33N 40°39' W 074°05'0 0.0
2017-Mar-26 18:33N 40°39' W 074°05'0 0.0
2017-Mar-26 17:33N 40°39' W 074°05'0 0.0
2017-Mar-26 16:33N 40°39' W 074°05'0 0.0
2017-Mar-26 15:33N 40°39' W 074°05'0 0.0
2017-Mar-26 14:33N 40°39' W 074°05'0 0.0
2017-Mar-26 13:33N 40°39' W 074°05'0 0.0
2017-Mar-26 12:33N 40°39' W 074°05'0 0.0
2017-Mar-26 11:33N 40°39' W 074°05'0 0.0
2017-Mar-26 10:33N 40°39' W 074°05'0 0.0
2017-Mar-26 09:33N 40°39' W 074°05'0 0.0
2017-Mar-26 08:33N 40°39' W 074°05'0 0.0
2017-Mar-26 07:33N 40°39' W 074°05'0 0.0
2017-Mar-26 06:33N 40°39' W 074°05'0 0.0
2017-Mar-26 05:33N 40°39' W 074°05'0 0.0
2017-Mar-26 04:33N 40°39' W 074°05'0 0.0
2017-Mar-26 03:33N 40°39' W 074°05'0 0.0
2017-Mar-26 02:33N 40°39' W 074°05'0 0.0
2017-Mar-26 01:33N 40°39' W 074°05'0 0.0
2017-Mar-26 00:33N 40°39' W 074°05'0 0.0
2017-Mar-25 23:33N 40°39' W 074°05'0 0.0
2017-Mar-25 22:33N 40°39' W 074°05'0 0.0
2017-Mar-25 21:33N 40°39' W 074°05'0 0.0
2017-Mar-25 20:33N 40°39' W 074°05'0 0.0
2017-Mar-25 19:33N 40°39' W 074°05'0 0.0
2017-Mar-25 18:33N 40°39' W 074°05'0 0.0
2017-Mar-25 17:33N 40°39' W 074°05'0 0.3
2017-Mar-25 16:33N 40°39' W 074°05'2 2.2
2017-Mar-25 15:32N 40°37' W 074°03'6 6.2
2017-Mar-25 14:33N 40°32' W 074°01'196 7.7
2017-Mar-24 13:04N 37°22' W 075°05'4 8.8
2017-Mar-24 12:33N 37°18' W 075°07'  
2017-Mar-21 08:11N 27°04' W 079°59'711.0
2017-Mar-21 07:33N 26°57' W 079°59'3510.3
2017-Mar-21 04:11N 26°22' W 079°58'6 9.7
2017-Mar-21 03:33N 26°16' W 079°59'10 9.8
2017-Mar-21 02:33N 26°06' W 079°59'10 9.9
2017-Mar-21 01:33N 25°57' W 079°60'1010.3
2017-Mar-21 00:33N 25°46' W 080°00'1110.5
2017-Mar-20 23:33N 25°36' W 080°01'  

Dump ship's entire track history